createdAt,value
2017-01-10T00:00:38.236Z,3116479.75
2017-01-10T00:01:38.219Z,3116479.75
2017-01-10T00:02:38.193Z,3116479.75
2017-01-10T00:03:38.227Z,3116479.75
2017-01-10T00:04:38.226Z,3116479.75
2017-01-10T00:05:38.287Z,3116479.75
2017-01-10T00:06:38.236Z,3116479.75
2017-01-10T00:07:38.225Z,3116479.75
2017-01-10T00:08:38.300Z,3116479.75
2017-01-10T00:09:38.175Z,3116479.75
2017-01-10T00:10:38.224Z,3116479.75
2017-01-10T00:11:38.210Z,3116479.75
2017-01-10T00:12:38.248Z,3116479.75
2017-01-10T00:13:38.243Z,3116479.75
2017-01-10T00:14:38.177Z,3116479.75
2017-01-10T00:15:38.186Z,3116479.75
2017-01-10T00:16:38.269Z,3116479.75
2017-01-10T00:17:38.257Z,3116479.75
2017-01-10T00:18:38.325Z,3116479.75
2017-01-10T00:19:38.214Z,3116479.75
2017-01-10T00:20:38.258Z,3116479.75
2017-01-10T00:21:38.328Z,3116479.75
2017-01-10T00:22:38.232Z,3116479.75
2017-01-10T00:23:38.281Z,3116479.75
2017-01-10T00:24:38.278Z,3116479.75
2017-01-10T00:25:38.336Z,3116479.75
2017-01-10T00:26:38.336Z,3116479.75
2017-01-10T00:27:38.593Z,3116479.75
2017-01-10T00:28:38.286Z,3116479.75
2017-01-10T00:29:38.236Z,3116479.75
2017-01-10T00:30:38.249Z,3116479.75
2017-01-10T00:31:38.383Z,3116479.75
2017-01-10T00:32:38.373Z,3116479.75
2017-01-10T00:33:38.365Z,3116479.75
2017-01-10T00:34:38.342Z,3116479.75
2017-01-10T00:35:38.273Z,3116479.75
2017-01-10T00:36:38.238Z,3116479.75
2017-01-10T00:37:38.305Z,3116479.75
2017-01-10T00:38:38.306Z,3116479.75
2017-01-10T00:39:38.403Z,3116479.75
2017-01-10T00:40:38.325Z,3116479.75
2017-01-10T00:41:38.254Z,3116479.75
2017-01-10T00:42:38.260Z,3116479.75
2017-01-10T00:43:38.355Z,3116479.75
2017-01-10T00:44:38.354Z,3116479.75
2017-01-10T00:45:38.341Z,3116479.75
2017-01-10T00:46:38.329Z,3116479.75
2017-01-10T00:47:38.411Z,3116479.75
2017-01-10T00:48:38.347Z,3116479.75
2017-01-10T00:49:38.282Z,3116479.75
2017-01-10T00:50:38.339Z,3116479.75
2017-01-10T00:51:38.285Z,3116479.75
2017-01-10T00:52:38.339Z,3116479.75
2017-01-10T00:53:38.282Z,3116479.75
2017-01-10T00:54:38.344Z,3116479.75
2017-01-10T00:55:38.282Z,3116479.75
2017-01-10T00:56:38.424Z,3116479.75
2017-01-10T00:57:38.356Z,3116479.75
2017-01-10T00:58:38.352Z,3116479.75
2017-01-10T00:59:38.397Z,3116479.75
2017-01-10T01:00:38.312Z,3116479.75
2017-01-10T01:01:38.429Z,3116479.75
2017-01-10T01:02:38.396Z,3116479.75
2017-01-10T01:03:38.396Z,3116479.75
2017-01-10T01:04:38.391Z,3116479.75
2017-01-10T01:05:38.400Z,3116479.75
2017-01-10T01:06:38.306Z,3116479.75
2017-01-10T01:07:38.690Z,3116479.75
2017-01-10T01:08:38.330Z,3116479.75
2017-01-10T01:09:38.435Z,3116479.75
2017-01-10T01:10:38.380Z,3116479.75
2017-01-10T01:11:38.375Z,3116479.75
2017-01-10T01:12:38.389Z,3116479.75
2017-01-10T01:13:38.389Z,3116479.75
2017-01-10T01:14:38.379Z,3116479.75
2017-01-10T01:15:38.345Z,3116479.75
2017-01-10T01:16:38.386Z,3116479.75
2017-01-10T01:17:38.437Z,3116479.75
2017-01-10T01:18:38.395Z,3116479.75
2017-01-10T01:19:38.391Z,3116479.75
2017-01-10T01:20:38.454Z,3116479.75
2017-01-10T01:21:38.449Z,3116479.75
2017-01-10T01:22:38.345Z,3116479.75
2017-01-10T01:23:38.403Z,3116479.75
2017-01-10T01:24:38.409Z,3116479.75
2017-01-10T01:25:38.344Z,3116479.75
2017-01-10T01:26:38.356Z,3116479.75
2017-01-10T01:27:38.665Z,3116479.75
2017-01-10T01:28:38.454Z,3116479.75
2017-01-10T01:29:38.428Z,3116479.75
2017-01-10T01:30:38.474Z,3116479.75
2017-01-10T01:31:38.546Z,3116479.75
2017-01-10T01:32:38.360Z,3116479.75
2017-01-10T01:33:38.415Z,3116479.75
2017-01-10T01:34:38.476Z,3116479.75
2017-01-10T01:35:38.430Z,3116479.75
2017-01-10T01:36:38.451Z,3116479.75
2017-01-10T01:37:38.517Z,3116479.75
2017-01-10T01:38:38.481Z,3116479.75
2017-01-10T01:39:38.428Z,3116479.75
2017-01-10T01:40:38.373Z,3116479.75
2017-01-10T01:41:38.486Z,3116479.75
2017-01-10T01:42:38.503Z,3116479.75
2017-01-10T01:43:38.368Z,3116479.75
2017-01-10T01:44:38.850Z,3116479.75
2017-01-10T01:45:38.523Z,3116479.75
2017-01-10T01:46:38.401Z,3116479.75
2017-01-10T01:47:38.470Z,3116479.75
2017-01-10T01:48:38.510Z,3116479.75
2017-01-10T01:49:38.441Z,3116479.75
2017-01-10T01:50:38.452Z,3116479.75
2017-01-10T01:51:38.499Z,3116479.75
2017-01-10T01:52:38.529Z,3116479.75
2017-01-10T01:53:38.451Z,3116479.75
2017-01-10T01:54:38.402Z,3116479.75
2017-01-10T01:55:38.405Z,3116479.75
2017-01-10T01:56:38.415Z,3116479.75
2017-01-10T01:57:38.540Z,3116479.75
2017-01-10T01:58:38.469Z,3116479.75
2017-01-10T01:59:38.546Z,3116479.75
2017-01-10T02:00:38.540Z,3116479.75
2017-01-10T02:01:38.420Z,3116479.75
2017-01-10T02:02:38.488Z,3116479.75
2017-01-10T02:03:38.591Z,3116479.75
2017-01-10T02:04:38.435Z,3116479.75
2017-01-10T02:05:38.475Z,3116479.75
2017-01-10T02:06:38.485Z,3116479.75
2017-01-10T02:07:38.622Z,3116479.75
2017-01-10T02:08:38.431Z,3116479.75
2017-01-10T02:09:38.492Z,3116479.75
2017-01-10T02:10:38.578Z,3116479.75
2017-01-10T02:11:38.500Z,3116479.75
2017-01-10T02:12:38.584Z,3116479.75
2017-01-10T02:13:38.437Z,3116479.75
2017-01-10T02:14:38.589Z,3116479.75
2017-01-10T02:15:38.564Z,3116479.75
2017-01-10T02:16:38.451Z,3116479.75
2017-01-10T02:17:38.501Z,3116479.75
2017-01-10T02:18:38.587Z,3116479.75
2017-01-10T02:19:38.451Z,3116479.75
2017-01-10T02:20:38.479Z,3116479.75
2017-01-10T02:21:38.471Z,3116479.75
2017-01-10T02:22:38.537Z,3116479.75
2017-01-10T02:23:38.563Z,3116479.75
2017-01-10T02:24:38.554Z,3116479.75
2017-01-10T02:25:38.537Z,3116479.75
2017-01-10T02:26:38.529Z,3116479.75
2017-01-10T02:27:38.596Z,3116479.75
2017-01-10T02:28:38.594Z,3116479.75
2017-01-10T02:29:38.545Z,3116479.75
2017-01-10T02:30:38.540Z,3116479.75
2017-01-10T02:31:38.534Z,3116479.75
2017-01-10T02:32:38.481Z,3116479.75
2017-01-10T02:33:38.602Z,3116479.75
2017-01-10T02:34:38.551Z,3116479.75
2017-01-10T02:35:38.557Z,3116479.75
2017-01-10T02:36:38.554Z,3116479.75
2017-01-10T02:37:38.628Z,3116479.75
2017-01-10T02:38:38.498Z,3116479.75
2017-01-10T02:39:38.775Z,3116479.75
2017-01-10T02:40:38.507Z,3116479.75
2017-01-10T02:41:38.585Z,3116479.75
2017-01-10T02:42:38.566Z,3116479.75
2017-01-10T02:43:38.575Z,3116479.75
2017-01-10T02:44:38.530Z,3116479.75
2017-01-10T02:45:38.532Z,3116479.75
2017-01-10T02:46:38.518Z,3116479.75
2017-01-10T02:47:38.540Z,3116479.75
2017-01-10T02:48:38.539Z,3116479.75
2017-01-10T02:49:38.539Z,3116479.75
2017-01-10T02:50:38.588Z,3116479.75
2017-01-10T02:51:38.584Z,3116479.75
2017-01-10T02:52:38.658Z,3116479.75
2017-01-10T02:53:38.592Z,3116479.75
2017-01-10T02:54:38.530Z,3116479.75
2017-01-10T02:55:38.612Z,3116479.75
2017-01-10T02:56:38.673Z,3116479.75
2017-01-10T02:57:38.667Z,4.11
2017-01-10T02:58:38.662Z,4.2
2017-01-10T02:59:38.668Z,4.24
2017-01-10T03:00:38.617Z,4.29
2017-01-10T03:01:38.614Z,4.22
2017-01-10T03:02:38.632Z,4.26
2017-01-10T03:03:39.332Z,4.26
2017-01-10T03:04:38.632Z,4.26
2017-01-10T03:05:38.687Z,4.17
2017-01-10T03:06:38.702Z,4.29
2017-01-10T03:07:38.563Z,124.99
2017-01-10T03:08:38.555Z,4.15
2017-01-10T03:09:38.558Z,4.24
2017-01-10T03:10:38.630Z,4.18
2017-01-10T03:11:39.339Z,4.22
2017-01-10T03:12:38.656Z,124.99
2017-01-10T03:13:38.644Z,4.18
2017-01-10T03:14:38.630Z,4.15
2017-01-10T03:15:38.659Z,4.18
2017-01-10T03:16:38.727Z,4.15
2017-01-10T03:17:38.646Z,4.11
2017-01-10T03:18:38.667Z,4.12
2017-01-10T03:19:38.572Z,4.15
2017-01-10T03:20:38.590Z,4.26
2017-01-10T03:21:38.693Z,4.26
2017-01-10T03:22:38.731Z,4.08
2017-01-10T03:23:38.602Z,4.21
2017-01-10T03:24:38.666Z,4.21
2017-01-10T03:25:38.701Z,4.15
2017-01-10T03:26:38.666Z,124.99
2017-01-10T03:27:38.765Z,3116479.75
2017-01-10T03:28:38.672Z,3116479.75
2017-01-10T03:29:38.667Z,3116479.75
2017-01-10T03:30:38.616Z,3116479.75
2017-01-10T03:31:39.265Z,3116479.75
2017-01-10T03:32:38.761Z,3116479.75
2017-01-10T03:33:38.744Z,3116479.75
2017-01-10T03:34:38.696Z,3116479.75
2017-01-10T03:35:38.630Z,3116479.75
2017-01-10T03:36:38.633Z,3116479.75
2017-01-10T03:37:38.762Z,3116479.75
2017-01-10T03:38:38.788Z,3116479.75
2017-01-10T03:39:38.643Z,3116479.75
2017-01-10T03:40:38.651Z,3116479.75
2017-01-10T03:41:38.768Z,3116479.75
2017-01-10T03:42:38.660Z,3116479.75
2017-01-10T03:43:38.786Z,3116479.75
2017-01-10T03:44:38.645Z,3116479.75
2017-01-10T03:45:38.800Z,4.12
2017-01-10T03:46:38.722Z,4.04
2017-01-10T03:47:38.732Z,4.15
2017-01-10T03:48:38.734Z,4.08
2017-01-10T03:49:38.796Z,3116479.75
2017-01-10T03:50:38.783Z,4.14
2017-01-10T03:51:38.796Z,4.1
2017-01-10T03:52:38.741Z,4.15
2017-01-10T03:53:38.790Z,4.11
2017-01-10T03:54:38.665Z,4.14
2017-01-10T03:55:38.732Z,4.04
2017-01-10T03:56:38.736Z,4.11
2017-01-10T03:57:38.744Z,4.1
2017-01-10T03:58:38.738Z,4.1
2017-01-10T03:59:38.790Z,4.1
2017-01-10T04:00:38.744Z,4.03
2017-01-10T04:01:38.738Z,4.15
2017-01-10T04:02:38.809Z,4.11
2017-01-10T04:03:38.819Z,4.15
2017-01-10T04:04:38.713Z,4.1
2017-01-10T04:05:38.727Z,4.03
2017-01-10T04:06:38.740Z,4.1
2017-01-10T04:07:38.819Z,3.94
2017-01-10T04:08:38.826Z,4.02
2017-01-10T04:09:38.825Z,4.03
2017-01-10T04:10:38.714Z,4.04
2017-01-10T04:11:38.829Z,4.11
2017-01-10T04:12:38.891Z,4.03
2017-01-10T04:13:38.915Z,4.02
2017-01-10T04:14:38.792Z,4.08
2017-01-10T04:15:38.733Z,4.07
2017-01-10T04:16:38.729Z,4.04
2017-01-10T04:17:38.860Z,2820798
2017-01-10T04:18:38.835Z,124.99
2017-01-10T04:19:38.793Z,3116479.75
2017-01-10T04:20:38.803Z,3116479.75
2017-01-10T04:21:38.781Z,3116479.75
2017-01-10T04:22:38.793Z,3116479.75
2017-01-10T04:23:38.789Z,3116479.75
2017-01-10T04:24:38.788Z,3116479.75
2017-01-10T04:25:38.885Z,3116479.75
2017-01-10T04:26:38.817Z,3116479.75
2017-01-10T04:27:38.801Z,3116479.75
2017-01-10T04:28:38.871Z,3116479.75
2017-01-10T04:29:38.811Z,3116479.75
2017-01-10T04:30:38.797Z,3116479.75
2017-01-10T04:31:38.845Z,3116479.75
2017-01-10T04:32:38.821Z,3116479.75
2017-01-10T04:33:38.773Z,3116479.75
2017-01-10T04:34:38.813Z,3116479.75
2017-01-10T04:35:38.908Z,3116479.75
2017-01-10T04:36:38.802Z,3116479.75
2017-01-10T04:37:38.886Z,3116479.75
2017-01-10T04:38:38.774Z,3116479.75
2017-01-10T04:39:38.913Z,3116479.75
2017-01-10T04:40:38.836Z,3116479.75
2017-01-10T04:41:38.834Z,3116479.75
2017-01-10T04:42:38.906Z,3116479.75
2017-01-10T04:43:38.942Z,3116479.75
2017-01-10T04:44:38.853Z,3116479.75
2017-01-10T04:45:38.790Z,3116479.75
2017-01-10T04:46:38.864Z,3116479.75
2017-01-10T04:47:38.816Z,3116479.75
2017-01-10T04:48:38.901Z,3116479.75
2017-01-10T04:49:38.861Z,3116479.75
2017-01-10T04:50:38.875Z,3116479.75
2017-01-10T04:51:38.797Z,3116479.75
2017-01-10T04:52:38.929Z,3116479.75
2017-01-10T04:53:38.923Z,3116479.75
2017-01-10T04:54:38.920Z,3116479.75
2017-01-10T04:55:38.866Z,3116479.75
2017-01-10T04:56:38.881Z,3116479.75
2017-01-10T04:57:38.878Z,3116479.75
2017-01-10T04:58:38.946Z,3116479.75
2017-01-10T04:59:38.880Z,3116479.75
2017-01-10T05:00:38.895Z,3116479.75
2017-01-10T05:01:38.943Z,3116479.75
2017-01-10T05:02:38.826Z,3116479.75
2017-01-10T05:03:38.851Z,3116479.75
2017-01-10T05:04:38.956Z,3116479.75
2017-01-10T05:05:38.829Z,3116479.75
2017-01-10T05:06:38.888Z,3116479.75
2017-01-10T05:07:39.074Z,3116479.75
2017-01-10T05:08:38.851Z,3116479.75
2017-01-10T05:09:38.917Z,3116479.75
2017-01-10T05:10:38.879Z,3116479.75
2017-01-10T05:11:38.906Z,3116479.75
2017-01-10T05:12:38.970Z,3116479.75
2017-01-10T05:13:38.966Z,3116479.75
2017-01-10T05:14:38.975Z,3116479.75
2017-01-10T05:15:38.943Z,3116479.75
2017-01-10T05:16:38.974Z,3116479.75
2017-01-10T05:17:38.931Z,3116479.75
2017-01-10T05:18:38.913Z,3116479.75
2017-01-10T05:19:38.894Z,3116479.75
2017-01-10T05:20:38.861Z,3116479.75
2017-01-10T05:21:38.919Z,3116479.75
2017-01-10T05:22:38.926Z,3116479.75
2017-01-10T05:23:38.916Z,3116479.75
2017-01-10T05:24:38.958Z,3116479.75
2017-01-10T05:25:38.941Z,3116479.75
2017-01-10T05:26:38.995Z,3116479.75
2017-01-10T05:27:38.944Z,3116479.75
2017-01-10T05:28:39.063Z,3116479.75
2017-01-10T05:29:38.899Z,3116479.75
2017-01-10T05:30:38.966Z,3116479.75
2017-01-10T05:31:38.970Z,3116479.75
2017-01-10T05:32:38.992Z,3116479.75
2017-01-10T05:33:38.899Z,3116479.75
2017-01-10T05:34:39.225Z,3116479.75
2017-01-10T05:35:39.008Z,3116479.75
2017-01-10T05:36:38.963Z,3116479.75
2017-01-10T05:37:39.058Z,3116479.75
2017-01-10T05:38:39.049Z,3116479.75
2017-01-10T05:39:38.955Z,3116479.75
2017-01-10T05:40:39.053Z,3116479.75
2017-01-10T05:41:39.049Z,3116479.75
2017-01-10T05:42:38.918Z,3116479.75
2017-01-10T05:43:38.948Z,3116479.75
2017-01-10T05:44:38.902Z,3116479.75
2017-01-10T05:45:39.099Z,3116479.75
2017-01-10T05:46:38.964Z,3116479.75
2017-01-10T05:47:38.996Z,3116479.75
2017-01-10T05:48:39.003Z,3116479.75
2017-01-10T05:49:38.989Z,3116479.75
2017-01-10T05:50:38.972Z,3116479.75
2017-01-10T05:51:39.080Z,3116479.75
2017-01-10T05:52:38.947Z,3116479.75
2017-01-10T05:53:39.094Z,3116479.75
2017-01-10T05:54:39.002Z,3116479.75
2017-01-10T05:55:39.012Z,3116479.75
2017-01-10T05:56:39.087Z,3116479.75
2017-01-10T05:57:39.065Z,3116479.75
2017-01-10T05:58:38.938Z,3116479.75
2017-01-10T05:59:38.947Z,3116479.75
2017-01-10T06:00:38.952Z,3116479.75
2017-01-10T06:01:39.094Z,3116479.75
2017-01-10T06:02:39.039Z,3116479.75
2017-01-10T06:03:39.029Z,3116479.75
2017-01-10T06:04:39.027Z,3116479.75
2017-01-10T06:05:38.958Z,3116479.75
2017-01-10T06:06:38.993Z,3116479.75
2017-01-10T06:07:39.055Z,3116479.75
2017-01-10T06:08:39.059Z,3116479.75
2017-01-10T06:09:39.041Z,3116479.75
2017-01-10T06:10:38.989Z,3116479.75
2017-01-10T06:11:39.001Z,3116479.75
2017-01-10T06:12:39.103Z,3116479.75
2017-01-10T06:13:39.050Z,3116479.75
2017-01-10T06:14:38.988Z,3116479.75
2017-01-10T06:15:39.045Z,3116479.75
2017-01-10T06:16:39.106Z,3116479.75
2017-01-10T06:17:39.070Z,3116479.75
2017-01-10T06:18:39.108Z,3116479.75
2017-01-10T06:19:39.115Z,3116479.75
2017-01-10T06:20:39.060Z,3116479.75
2017-01-10T06:21:38.993Z,3116479.75
2017-01-10T06:22:39.074Z,3116479.75
2017-01-10T06:23:39.023Z,3116479.75
2017-01-10T06:24:39.080Z,3116479.75
2017-01-10T06:25:39.052Z,3116479.75
2017-01-10T06:26:39.062Z,3.24
2017-01-10T06:27:39.079Z,3116479.75
2017-01-10T06:28:39.097Z,3.32
2017-01-10T06:29:39.084Z,3.3
2017-01-10T06:30:39.088Z,3.3
2017-01-10T06:31:39.090Z,3.34
2017-01-10T06:32:39.028Z,3116479.75
2017-01-10T06:33:39.109Z,3.24
2017-01-10T06:34:39.086Z,3.3
2017-01-10T06:35:39.038Z,2820799.25
2017-01-10T06:36:39.165Z,3116479.75
2017-01-10T06:37:39.043Z,3116479.75
2017-01-10T06:38:39.102Z,3116479.75
2017-01-10T06:39:39.075Z,3116479.75
2017-01-10T06:40:39.190Z,3116479.75
2017-01-10T06:41:39.029Z,3116479.75
2017-01-10T06:42:39.110Z,3116479.75
2017-01-10T06:43:39.126Z,3116479.75
2017-01-10T06:44:39.072Z,3116479.75
2017-01-10T06:45:39.113Z,3116479.75
2017-01-10T06:46:39.135Z,3116479.75
2017-01-10T06:47:39.176Z,3116479.75
2017-01-10T06:48:39.127Z,3116479.75
2017-01-10T06:49:39.085Z,3116479.75
2017-01-10T06:50:39.087Z,3116479.75
2017-01-10T06:51:39.122Z,3116479.75
2017-01-10T06:52:39.155Z,3116479.75
2017-01-10T06:53:39.199Z,3116479.75
2017-01-10T06:54:39.156Z,3116479.75
2017-01-10T06:55:39.452Z,3116479.75
2017-01-10T06:56:39.191Z,3116479.75
2017-01-10T06:57:39.188Z,3116479.75
2017-01-10T06:58:39.234Z,3116479.75
2017-01-10T06:59:39.202Z,3116479.75
2017-01-10T07:00:39.240Z,3116479.75
2017-01-10T07:01:39.285Z,3116479.75
2017-01-10T07:02:39.176Z,3116479.75
2017-01-10T07:03:39.209Z,3116479.75
2017-01-10T07:04:39.235Z,3116479.75
2017-01-10T07:05:39.164Z,3116479.75
2017-01-10T07:06:39.202Z,3116479.75
2017-01-10T07:07:39.233Z,3116479.75
2017-01-10T07:08:39.194Z,3116479.75
2017-01-10T07:09:39.883Z,3116479.75
2017-01-10T07:10:39.270Z,3116479.75
2017-01-10T07:11:39.407Z,3116479.75
2017-01-10T07:12:39.181Z,3116479.75
2017-01-10T07:13:39.335Z,3116479.75
2017-01-10T07:14:39.273Z,3116479.75
2017-01-10T07:15:39.321Z,3116479.75
2017-01-10T07:16:39.238Z,3116479.75
2017-01-10T07:17:39.344Z,3116479.75
2017-01-10T07:18:39.302Z,3116479.75
2017-01-10T07:19:39.675Z,3116479.75
2017-01-10T07:20:39.532Z,3116479.75
2017-01-10T07:21:39.221Z,3116479.75
2017-01-10T07:22:39.172Z,3116479.75
2017-01-10T07:23:39.224Z,3116479.75
2017-01-10T07:24:39.237Z,3116479.75
2017-01-10T07:25:39.142Z,3116479.75
2017-01-10T07:26:39.140Z,3116479.75
2017-01-10T07:27:39.406Z,3116479.75
2017-01-10T07:28:39.303Z,3116479.75
2017-01-10T07:29:41.792Z,3116479.75
2017-01-10T07:30:39.344Z,3116479.75
2017-01-10T07:31:39.179Z,3116479.75
2017-01-10T07:32:39.286Z,3116479.75
2017-01-10T07:33:39.191Z,3116479.75
2017-01-10T07:34:39.262Z,3116479.75
2017-01-10T07:35:39.191Z,3116479.75
2017-01-10T07:36:39.303Z,3116479.75
2017-01-10T07:37:39.279Z,3116479.75
2017-01-10T07:38:39.237Z,3116479.75
2017-01-10T07:39:42.173Z,3116479.75
2017-01-10T07:40:39.312Z,3116479.75
2017-01-10T07:41:39.256Z,3116479.75
2017-01-10T07:42:39.269Z,3116479.75
2017-01-10T07:43:39.292Z,3116479.75
2017-01-10T07:44:39.285Z,3116479.75
2017-01-10T07:45:39.333Z,3116479.75
2017-01-10T07:46:39.288Z,3116479.75
2017-01-10T07:47:39.275Z,3116479.75
2017-01-10T07:48:39.406Z,3116479.75
2017-01-10T07:49:39.324Z,3116479.75
2017-01-10T07:50:39.277Z,3116479.75
2017-01-10T07:51:39.342Z,3116479.75
2017-01-10T07:52:39.229Z,3116479.75
2017-01-10T07:53:39.367Z,3116479.75
2017-01-10T07:54:39.325Z,3116479.75
2017-01-10T07:55:39.233Z,3116479.75
2017-01-10T07:56:39.303Z,3116479.75
2017-01-10T07:57:39.260Z,3116479.75
2017-01-10T07:58:39.359Z,3116479.75
2017-01-10T07:59:39.285Z,3116479.75
2017-01-10T08:00:39.280Z,3116479.75
2017-01-10T08:01:39.337Z,3116479.75
2017-01-10T08:02:39.352Z,3116479.75
2017-01-10T08:03:39.410Z,3116479.75
2017-01-10T08:04:39.374Z,3116479.75
2017-01-10T08:05:39.775Z,3116479.75
2017-01-10T08:06:39.298Z,3116479.75
2017-01-10T08:07:39.243Z,3116479.75
2017-01-10T08:08:39.327Z,3116479.75
2017-01-10T08:09:40.602Z,3116479.75
2017-01-10T08:10:39.234Z,3116479.75
2017-01-10T08:11:39.292Z,3116479.75
2017-01-10T08:12:39.232Z,3116479.75
2017-01-10T08:13:39.307Z,3116479.75
2017-01-10T08:14:39.776Z,3116479.75
2017-01-10T08:15:41.219Z,3116479.75
2017-01-10T08:16:40.097Z,3116479.75
2017-01-10T08:17:47.965Z,3116479.75
2017-01-10T08:18:41.916Z,3116479.75
2017-01-10T08:19:40.348Z,3116479.75
2017-01-10T08:20:39.367Z,3116479.75
2017-01-10T08:21:39.388Z,3116479.75
2017-01-10T08:22:39.357Z,3116479.75
2017-01-10T08:23:39.293Z,3116479.75
2017-01-10T08:24:39.339Z,3116479.75
2017-01-10T08:25:39.351Z,3116479.75
2017-01-10T08:26:39.395Z,3116479.75
2017-01-10T08:27:39.296Z,3116479.75
2017-01-10T08:28:39.431Z,3116479.75
2017-01-10T08:29:39.383Z,3116479.75
2017-01-10T08:30:39.396Z,3116479.75
2017-01-10T08:31:39.348Z,3116479.75
2017-01-10T08:32:39.396Z,3116479.75
2017-01-10T08:33:39.300Z,3116479.75
2017-01-10T08:34:39.312Z,3116479.75
2017-01-10T08:35:39.422Z,3116479.75
2017-01-10T08:36:39.475Z,3116479.75
2017-01-10T08:37:39.349Z,3116479.75
2017-01-10T08:38:39.453Z,3116479.75
2017-01-10T08:39:39.470Z,3116479.75
2017-01-10T08:40:39.472Z,3116479.75
2017-01-10T08:41:39.498Z,3116479.75
2017-01-10T08:42:39.439Z,3116479.75
2017-01-10T08:43:39.750Z,3116479.75
2017-01-10T08:44:39.401Z,3116479.75
2017-01-10T08:45:39.432Z,3116479.75
2017-01-10T08:46:39.914Z,3116479.75
2017-01-10T08:47:39.533Z,3116479.75
2017-01-10T08:48:39.352Z,3116479.75
2017-01-10T08:49:39.522Z,3116479.75
2017-01-10T08:50:39.558Z,3116479.75
2017-01-10T08:51:39.462Z,3116479.75
2017-01-10T08:52:39.484Z,3116479.75
2017-01-10T08:53:39.536Z,3116479.75
2017-01-10T08:54:39.500Z,3116479.75
2017-01-10T08:55:39.525Z,3116479.75
2017-01-10T08:56:39.411Z,3116479.75
2017-01-10T08:57:39.432Z,3116479.75
2017-01-10T08:58:42.619Z,3116479.75
2017-01-10T08:59:39.505Z,3116479.75
2017-01-10T09:00:39.388Z,3116479.75
2017-01-10T09:01:39.427Z,3116479.75
2017-01-10T09:02:39.429Z,3116479.75
2017-01-10T09:03:39.430Z,3116479.75
2017-01-10T09:04:39.493Z,3116479.75
2017-01-10T09:05:39.396Z,3116479.75
2017-01-10T09:06:39.438Z,3116479.75
2017-01-10T09:07:39.445Z,3116479.75
2017-01-10T09:08:39.399Z,3116479.75
2017-01-10T09:09:39.477Z,3116479.75
2017-01-10T09:10:39.484Z,3116479.75
2017-01-10T09:11:39.543Z,3116479.75
2017-01-10T09:12:39.456Z,3116479.75
2017-01-10T09:13:39.543Z,3116479.75
2017-01-10T09:14:39.481Z,3116479.75
2017-01-10T09:15:39.443Z,3116479.75
2017-01-10T09:16:39.404Z,3116479.75
2017-01-10T09:17:39.584Z,3116479.75
2017-01-10T09:18:39.444Z,3116479.75
2017-01-10T09:19:39.506Z,3116479.75
2017-01-10T09:20:39.451Z,3116479.75
2017-01-10T09:21:39.530Z,3116479.75
2017-01-10T09:22:39.499Z,3116479.75
2017-01-10T09:23:39.759Z,3116479.75
2017-01-10T09:24:39.497Z,3116479.75
2017-01-10T09:25:39.487Z,3116479.75
2017-01-10T09:26:39.472Z,3116479.75
2017-01-10T09:27:39.544Z,3116479.75
2017-01-10T09:28:39.483Z,3116479.75
2017-01-10T09:29:39.536Z,3116479.75
2017-01-10T09:30:40.097Z,3116479.75
2017-01-10T09:31:39.528Z,3116479.75
2017-01-10T09:32:39.566Z,3116479.75
2017-01-10T09:33:39.614Z,3116479.75
2017-01-10T09:34:39.547Z,3116479.75
2017-01-10T09:35:39.557Z,3116479.75
2017-01-10T09:36:39.527Z,3116479.75
2017-01-10T09:37:39.428Z,3116479.75
2017-01-10T09:38:39.509Z,3116479.75
2017-01-10T09:39:39.535Z,3116479.75
2017-01-10T09:40:39.524Z,3116479.75
2017-01-10T09:41:39.564Z,3116479.75
2017-01-10T09:42:39.519Z,3116479.75
2017-01-10T09:43:39.521Z,3116479.75
2017-01-10T09:44:39.615Z,3116479.75
2017-01-10T09:45:39.629Z,3116479.75
2017-01-10T09:46:39.507Z,3116479.75
2017-01-10T09:47:39.603Z,3116479.75
2017-01-10T09:48:39.623Z,3116479.75
2017-01-10T09:49:39.483Z,3116479.75
2017-01-10T09:50:39.607Z,3116479.75
2017-01-10T09:51:39.479Z,3116479.75
2017-01-10T09:52:44.957Z,3116479.75
2017-01-10T09:53:41.641Z,3116479.75
2017-01-10T09:54:41.765Z,3116479.75
2017-01-10T09:55:41.548Z,3116479.75
2017-01-10T09:56:39.617Z,3116479.75
2017-01-10T09:57:39.541Z,3116479.75
2017-01-10T09:58:39.660Z,3116479.75
2017-01-10T09:59:39.542Z,3116479.75
2017-01-10T10:00:39.915Z,3116479.75
2017-01-10T10:01:39.591Z,3116479.75
2017-01-10T10:02:39.537Z,3116479.75
2017-01-10T10:03:39.580Z,3116479.75
2017-01-10T10:04:39.582Z,3116479.75
2017-01-10T10:05:39.557Z,3116479.75
2017-01-10T10:06:39.674Z,3116479.75
2017-01-10T10:07:39.493Z,3116479.75
2017-01-10T10:08:39.642Z,3116479.75
2017-01-10T10:09:39.600Z,3116479.75
2017-01-10T10:10:39.615Z,3116479.75
2017-01-10T10:11:39.496Z,3116479.75
2017-01-10T10:12:39.568Z,3116479.75
2017-01-10T10:13:39.584Z,3116479.75
2017-01-10T10:14:39.660Z,3116479.75
2017-01-10T10:15:39.550Z,3116479.75
2017-01-10T10:16:39.562Z,3116479.75
2017-01-10T10:17:40.525Z,3116479.75
2017-01-10T10:18:39.585Z,3116479.75
2017-01-10T10:19:39.719Z,3116479.75
2017-01-10T10:20:39.537Z,3116479.75
2017-01-10T10:21:39.639Z,3116479.75
2017-01-10T10:22:39.651Z,3116479.75
2017-01-10T10:23:39.657Z,3116479.75
2017-01-10T10:24:39.682Z,3116479.75
2017-01-10T10:25:39.529Z,3116479.75
2017-01-10T10:26:39.654Z,3116479.75
2017-01-10T10:27:39.541Z,3116479.75
2017-01-10T10:28:39.609Z,3116479.75
2017-01-10T10:29:39.707Z,3116479.75
2017-01-10T10:30:39.638Z,3116479.75
2017-01-10T10:31:39.593Z,3116479.75
2017-01-10T10:32:39.678Z,3116479.75
2017-01-10T10:33:39.653Z,3116479.75
2017-01-10T10:34:39.655Z,3116479.75
2017-01-10T10:35:39.619Z,3116479.75
2017-01-10T10:36:39.599Z,3116479.75
2017-01-10T10:37:39.700Z,3116479.75
2017-01-10T10:38:39.609Z,3116479.75
2017-01-10T10:39:39.625Z,3116479.75
2017-01-10T10:40:39.658Z,3116479.75
2017-01-10T10:41:39.614Z,3116479.75
2017-01-10T10:42:39.638Z,3116479.75
2017-01-10T10:43:39.645Z,3116479.75
2017-01-10T10:44:39.678Z,3116479.75
2017-01-10T10:45:39.737Z,3116479.75
2017-01-10T10:46:39.724Z,3116479.75
2017-01-10T10:47:39.644Z,3116479.75
2017-01-10T10:48:39.680Z,3116479.75
2017-01-10T10:49:39.735Z,4.87
2017-01-10T10:50:39.742Z,4.9
2017-01-10T10:51:39.674Z,4.78
2017-01-10T10:52:39.675Z,4.88
2017-01-10T10:53:39.610Z,4.87
2017-01-10T10:54:39.772Z,4.85
2017-01-10T10:55:39.891Z,4.9
2017-01-10T10:56:39.603Z,4.9
2017-01-10T10:57:39.719Z,4.88
2017-01-10T10:58:39.706Z,4.97
2017-01-10T10:59:39.686Z,4.92
2017-01-10T11:00:39.704Z,3116479.75
2017-01-10T11:01:39.658Z,3116479.75
2017-01-10T11:02:39.748Z,3116479.75
2017-01-10T11:03:39.750Z,3116479.75
2017-01-10T11:04:39.845Z,3116479.75
2017-01-10T11:05:39.695Z,3116479.75
2017-01-10T11:06:39.685Z,3116479.75
2017-01-10T11:07:39.624Z,3116479.75
2017-01-10T11:08:39.612Z,3116479.75
2017-01-10T11:09:40.004Z,3116479.75
2017-01-10T11:10:39.804Z,3116479.75
2017-01-10T11:11:40.215Z,3116479.75
2017-01-10T11:12:39.984Z,3116479.75
2017-01-10T11:13:39.706Z,3116479.75
2017-01-10T11:14:39.860Z,3116479.75
2017-01-10T11:15:39.769Z,3116479.75
2017-01-10T11:16:40.050Z,5.34
2017-01-10T11:17:39.806Z,5.23
2017-01-10T11:18:39.776Z,5.36
2017-01-10T11:19:39.883Z,5.3